sensor_id;sensor_type;location;lat;lon;timestamp;temperature;humidity
25138;DHT22;13112;50.986;4.354;2022-12-18T00:00:47;-4.10;99.90
25138;DHT22;13112;50.986;4.354;2022-12-18T00:03:16;-4.20;99.90
25138;DHT22;13112;50.986;4.354;2022-12-18T00:05:49;-4.20;99.90
25138;DHT22;13112;50.986;4.354;2022-12-18T00:08:15;-4.10;99.90
25138;DHT22;13112;50.986;4.354;2022-12-18T00:10:42;-3.90;99.90
25138;DHT22;13112;50.986;4.354;2022-12-18T00:13:09;-4.00;99.90
25138;DHT22;13112;50.986;4.354;2022-12-18T00:15:35;-4.20;99.90
25138;DHT22;13112;50.986;4.354;2022-12-18T00:18:05;-4.30;99.90
25138;DHT22;13112;50.986;4.354;2022-12-18T00:20:35;-4.40;99.90
25138;DHT22;13112;50.986;4.354;2022-12-18T00:23:00;-4.50;99.90
25138;DHT22;13112;50.986;4.354;2022-12-18T00:25:26;-4.50;99.90
25138;DHT22;13112;50.986;4.354;2022-12-18T00:27:52;-4.50;99.90
25138;DHT22;13112;50.986;4.354;2022-12-18T00:30:18;-4.40;99.90
25138;DHT22;13112;50.986;4.354;2022-12-18T00:32:43;-4.40;99.90
25138;DHT22;13112;50.986;4.354;2022-12-18T00:35:09;-4.40;99.90
25138;DHT22;13112;50.986;4.354;2022-12-18T00:37:35;-4.50;99.90
25138;DHT22;13112;50.986;4.354;2022-12-18T00:40:01;-4.50;99.90
25138;DHT22;13112;50.986;4.354;2022-12-18T00:42:27;-4.40;99.90
25138;DHT22;13112;50.986;4.354;2022-12-18T00:45:11;-4.40;99.90
25138;DHT22;13112;50.986;4.354;2022-12-18T00:47:37;-4.40;99.90
25138;DHT22;13112;50.986;4.354;2022-12-18T00:50:03;-4.30;99.90
25138;DHT22;13112;50.986;4.354;2022-12-18T00:52:28;-4.40;99.90
25138;DHT22;13112;50.986;4.354;2022-12-18T00:54:54;-4.60;99.90
25138;DHT22;13112;50.986;4.354;2022-12-18T00:57:20;-4.70;99.90
25138;DHT22;13112;50.986;4.354;2022-12-18T00:59:46;-4.90;99.90
25138;DHT22;13112;50.986;4.354;2022-12-18T01:02:11;-5.00;99.90
25138;DHT22;13112;50.986;4.354;2022-12-18T01:04:37;-5.10;99.90
25138;DHT22;13112;50.986;4.354;2022-12-18T01:07:02;-5.10;99.90
25138;DHT22;13112;50.986;4.354;2022-12-18T01:09:28;-4.90;99.90
25138;DHT22;13112;50.986;4.354;2022-12-18T01:11:54;-4.80;99.90
25138;DHT22;13112;50.986;4.354;2022-12-18T01:14:19;-4.50;99.90
25138;DHT22;13112;50.986;4.354;2022-12-18T01:16:45;-4.60;99.90
25138;DHT22;13112;50.986;4.354;2022-12-18T01:19:11;-4.60;99.90
25138;DHT22;13112;50.986;4.354;2022-12-18T01:21:36;-4.60;99.90
25138;DHT22;13112;50.986;4.354;2022-12-18T01:24:02;-4.60;99.90
25138;DHT22;13112;50.986;4.354;2022-12-18T01:26:28;-4.60;99.90
25138;DHT22;13112;50.986;4.354;2022-12-18T01:28:56;-4.60;99.90
25138;DHT22;13112;50.986;4.354;2022-12-18T01:31:27;-4.70;99.90
25138;DHT22;13112;50.986;4.354;2022-12-18T01:33:54;-4.80;99.90
25138;DHT22;13112;50.986;4.354;2022-12-18T01:36:26;-4.70;99.90
25138;DHT22;13112;50.986;4.354;2022-12-18T01:38:53;-4.80;99.90
25138;DHT22;13112;50.986;4.354;2022-12-18T01:41:24;-4.70;99.90
25138;DHT22;13112;50.986;4.354;2022-12-18T01:44:55;-4.60;99.90
25138;DHT22;13112;50.986;4.354;2022-12-18T01:47:27;-4.50;99.90
25138;DHT22;13112;50.986;4.354;2022-12-18T01:49:55;-4.70;99.90
25138;DHT22;13112;50.986;4.354;2022-12-18T01:52:21;-4.80;99.90
25138;DHT22;13112;50.986;4.354;2022-12-18T01:54:49;-4.80;99.90
25138;DHT22;13112;50.986;4.354;2022-12-18T01:57:16;-4.80;99.90
25138;DHT22;13112;50.986;4.354;2022-12-18T01:59:45;-4.70;99.90
25138;DHT22;13112;50.986;4.354;2022-12-18T02:02:13;-4.50;99.90
25138;DHT22;13112;50.986;4.354;2022-12-18T02:04:39;-4.80;99.90
25138;DHT22;13112;50.986;4.354;2022-12-18T02:07:26;-4.90;99.90
25138;DHT22;13112;50.986;4.354;2022-12-18T02:18:00;-5.10;99.90
25138;DHT22;13112;50.986;4.354;2022-12-18T02:20:36;-5.10;99.90
25138;DHT22;13112;50.986;4.354;2022-12-18T02:23:14;-5.00;99.90
25138;DHT22;13112;50.986;4.354;2022-12-18T02:26:07;-5.00;99.90
25138;DHT22;13112;50.986;4.354;2022-12-18T02:28:51;-5.00;99.90
25138;DHT22;13112;50.986;4.354;2022-12-18T02:31:21;-5.00;99.90
25138;DHT22;13112;50.986;4.354;2022-12-18T02:33:50;-4.90;99.90
25138;DHT22;13112;50.986;4.354;2022-12-18T02:36:17;-5.00;99.90
25138;DHT22;13112;50.986;4.354;2022-12-18T02:38:46;-5.20;99.90
25138;DHT22;13112;50.986;4.354;2022-12-18T02:41:13;-5.40;99.90
25138;DHT22;13112;50.986;4.354;2022-12-18T02:43:41;-5.50;99.90
25138;DHT22;13112;50.986;4.354;2022-12-18T02:46:27;-5.40;99.90
25138;DHT22;13112;50.986;4.354;2022-12-18T02:49:02;-5.30;99.90
25138;DHT22;13112;50.986;4.354;2022-12-18T03:00:11;-5.00;99.90
25138;DHT22;13112;50.986;4.354;2022-12-18T03:03:40;-5.10;99.90
25138;DHT22;13112;50.986;4.354;2022-12-18T03:05:55;-5.20;99.90
25138;DHT22;13112;50.986;4.354;2022-12-18T03:08:25;-5.10;99.90
25138;DHT22;13112;50.986;4.354;2022-12-18T03:11:00;-5.10;99.90
25138;DHT22;13112;50.986;4.354;2022-12-18T03:13:34;-5.20;99.90
25138;DHT22;13112;50.986;4.354;2022-12-18T03:16:02;-5.20;99.90
25138;DHT22;13112;50.986;4.354;2022-12-18T03:18:54;-5.20;99.90
25138;DHT22;13112;50.986;4.354;2022-12-18T03:21:25;-5.20;99.90
25138;DHT22;13112;50.986;4.354;2022-12-18T03:23:52;-5.30;99.90
25138;DHT22;13112;50.986;4.354;2022-12-18T03:26:23;-5.30;99.90
25138;DHT22;13112;50.986;4.354;2022-12-18T03:28:59;-5.30;99.90
25138;DHT22;13112;50.986;4.354;2022-12-18T03:31:29;-5.10;99.90
25138;DHT22;13112;50.986;4.354;2022-12-18T03:34:02;-5.10;99.90
25138;DHT22;13112;50.986;4.354;2022-12-18T03:36:32;-5.00;99.90
25138;DHT22;13112;50.986;4.354;2022-12-18T03:38:58;-5.00;99.90
25138;DHT22;13112;50.986;4.354;2022-12-18T03:41:47;-4.90;99.90
25138;DHT22;13112;50.986;4.354;2022-12-18T03:52:41;-5.30;99.90
25138;DHT22;13112;50.986;4.354;2022-12-18T03:55:09;-5.40;99.90
25138;DHT22;13112;50.986;4.354;2022-12-18T03:57:35;-5.40;99.90
25138;DHT22;13112;50.986;4.354;2022-12-18T04:00:11;-5.30;99.90
25138;DHT22;13112;50.986;4.354;2022-12-18T04:02:44;-5.30;99.90
25138;DHT22;13112;50.986;4.354;2022-12-18T04:05:11;-5.40;99.90
25138;DHT22;13112;50.986;4.354;2022-12-18T04:07:39;-5.40;99.90
25138;DHT22;13112;50.986;4.354;2022-12-18T04:10:07;-5.30;99.90
25138;DHT22;13112;50.986;4.354;2022-12-18T04:12:33;-5.30;99.90
25138;DHT22;13112;50.986;4.354;2022-12-18T04:14:58;-5.40;99.90
25138;DHT22;13112;50.986;4.354;2022-12-18T04:17:24;-5.30;99.90
25138;DHT22;13112;50.986;4.354;2022-12-18T04:19:50;-5.20;99.90
25138;DHT22;13112;50.986;4.354;2022-12-18T04:22:18;-5.30;99.90
25138;DHT22;13112;50.986;4.354;2022-12-18T04:24:44;-5.30;99.90
25138;DHT22;13112;50.986;4.354;2022-12-18T04:27:10;-5.30;99.90
25138;DHT22;13112;50.986;4.354;2022-12-18T04:29:35;-5.40;99.90
25138;DHT22;13112;50.986;4.354;2022-12-18T04:32:01;-5.60;99.90
25138;DHT22;13112;50.986;4.354;2022-12-18T04:34:27;-5.60;99.90
25138;DHT22;13112;50.986;4.354;2022-12-18T04:36:52;-5.60;99.90
25138;DHT22;13112;50.986;4.354;2022-12-18T04:39:18;-5.80;99.90
25138;DHT22;13112;50.986;4.354;2022-12-18T04:41:44;-6.00;99.90
25138;DHT22;13112;50.986;4.354;2022-12-18T04:44:10;-6.00;99.90
25138;DHT22;13112;50.986;4.354;2022-12-18T04:46:35;-6.00;99.90
25138;DHT22;13112;50.986;4.354;2022-12-18T04:49:01;-6.00;99.90
25138;DHT22;13112;50.986;4.354;2022-12-18T04:51:27;-5.90;99.90
25138;DHT22;13112;50.986;4.354;2022-12-18T04:53:53;-5.90;99.90
25138;DHT22;13112;50.986;4.354;2022-12-18T04:56:19;-5.90;99.90
25138;DHT22;13112;50.986;4.354;2022-12-18T04:58:45;-5.80;99.90
25138;DHT22;13112;50.986;4.354;2022-12-18T05:01:12;-5.70;99.90
25138;DHT22;13112;50.986;4.354;2022-12-18T05:03:38;-5.70;99.90
25138;DHT22;13112;50.986;4.354;2022-12-18T05:06:05;-5.70;99.90
25138;DHT22;13112;50.986;4.354;2022-12-18T05:08:31;-5.70;99.90
25138;DHT22;13112;50.986;4.354;2022-12-18T05:11:01;-5.70;99.90
25138;DHT22;13112;50.986;4.354;2022-12-18T05:13:31;-5.80;99.90
25138;DHT22;13112;50.986;4.354;2022-12-18T05:15:57;-5.90;99.90
25138;DHT22;13112;50.986;4.354;2022-12-18T05:18:23;-5.80;99.90
25138;DHT22;13112;50.986;4.354;2022-12-18T05:20:50;-6.00;99.90
25138;DHT22;13112;50.986;4.354;2022-12-18T05:23:17;-6.00;99.90
25138;DHT22;13112;50.986;4.354;2022-12-18T05:25:52;-6.00;99.90
25138;DHT22;13112;50.986;4.354;2022-12-18T05:28:18;-6.00;99.90
25138;DHT22;13112;50.986;4.354;2022-12-18T05:30:54;-5.80;99.90
25138;DHT22;13112;50.986;4.354;2022-12-18T05:33:22;-6.10;99.90
25138;DHT22;13112;50.986;4.354;2022-12-18T05:35:53;-5.80;99.90
25138;DHT22;13112;50.986;4.354;2022-12-18T05:38:20;-5.90;99.90
25138;DHT22;13112;50.986;4.354;2022-12-18T05:40:48;-6.00;99.90
25138;DHT22;13112;50.986;4.354;2022-12-18T05:43:14;-6.10;99.90
25138;DHT22;13112;50.986;4.354;2022-12-18T05:45:40;-6.10;99.90
25138;DHT22;13112;50.986;4.354;2022-12-18T05:48:07;-6.20;99.90
25138;DHT22;13112;50.986;4.354;2022-12-18T05:50:36;-6.40;99.90
25138;DHT22;13112;50.986;4.354;2022-12-18T05:53:04;-6.40;99.90
25138;DHT22;13112;50.986;4.354;2022-12-18T05:55:36;-6.50;99.90
25138;DHT22;13112;50.986;4.354;2022-12-18T05:58:03;-6.60;99.90
25138;DHT22;13112;50.986;4.354;2022-12-18T06:00:29;-6.60;99.90
25138;DHT22;13112;50.986;4.354;2022-12-18T06:02:55;-6.50;99.90
25138;DHT22;13112;50.986;4.354;2022-12-18T06:05:21;-6.40;99.90
25138;DHT22;13112;50.986;4.354;2022-12-18T06:07:47;-6.20;99.90
25138;DHT22;13112;50.986;4.354;2022-12-18T06:10:16;-6.20;99.90
25138;DHT22;13112;50.986;4.354;2022-12-18T06:12:41;-6.10;99.90
25138;DHT22;13112;50.986;4.354;2022-12-18T06:15:07;-6.00;99.90
25138;DHT22;13112;50.986;4.354;2022-12-18T06:17:36;-6.10;99.90
25138;DHT22;13112;50.986;4.354;2022-12-18T06:20:03;-6.10;99.90
25138;DHT22;13112;50.986;4.354;2022-12-18T06:22:31;-6.00;99.90
25138;DHT22;13112;50.986;4.354;2022-12-18T06:24:56;-5.90;99.90
25138;DHT22;13112;50.986;4.354;2022-12-18T06:27:22;-6.00;99.90
25138;DHT22;13112;50.986;4.354;2022-12-18T06:29:48;-6.00;99.90
25138;DHT22;13112;50.986;4.354;2022-12-18T06:32:13;-6.20;99.90
25138;DHT22;13112;50.986;4.354;2022-12-18T06:34:39;-6.50;99.90
25138;DHT22;13112;50.986;4.354;2022-12-18T06:37:05;-6.60;99.90
25138;DHT22;13112;50.986;4.354;2022-12-18T06:39:30;-6.40;99.90
25138;DHT22;13112;50.986;4.354;2022-12-18T06:41:56;-6.50;99.90
25138;DHT22;13112;50.986;4.354;2022-12-18T06:44:22;-6.30;99.90
25138;DHT22;13112;50.986;4.354;2022-12-18T06:46:47;-6.10;99.90
25138;DHT22;13112;50.986;4.354;2022-12-18T06:49:13;-6.20;99.90
25138;DHT22;13112;50.986;4.354;2022-12-18T06:51:39;-6.20;99.90
25138;DHT22;13112;50.986;4.354;2022-12-18T06:54:04;-6.10;99.90
25138;DHT22;13112;50.986;4.354;2022-12-18T06:56:30;-6.10;99.90
25138;DHT22;13112;50.986;4.354;2022-12-18T06:58:56;-6.20;99.90
25138;DHT22;13112;50.986;4.354;2022-12-18T07:01:22;-6.20;99.90
25138;DHT22;13112;50.986;4.354;2022-12-18T07:03:54;-6.20;99.90
25138;DHT22;13112;50.986;4.354;2022-12-18T07:06:22;-6.30;99.90
25138;DHT22;13112;50.986;4.354;2022-12-18T07:08:49;-6.40;99.90
25138;DHT22;13112;50.986;4.354;2022-12-18T07:11:16;-6.40;99.90
25138;DHT22;13112;50.986;4.354;2022-12-18T07:13:43;-6.10;99.90
25138;DHT22;13112;50.986;4.354;2022-12-18T07:16:17;-6.10;99.90
25138;DHT22;13112;50.986;4.354;2022-12-18T07:18:43;-5.90;99.90
25138;DHT22;13112;50.986;4.354;2022-12-18T07:21:12;-5.90;99.90
25138;DHT22;13112;50.986;4.354;2022-12-18T07:23:38;-5.90;99.90
25138;DHT22;13112;50.986;4.354;2022-12-18T07:26:08;-5.90;99.90
25138;DHT22;13112;50.986;4.354;2022-12-18T07:28:35;-6.00;99.90
25138;DHT22;13112;50.986;4.354;2022-12-18T07:31:06;-5.90;99.90
25138;DHT22;13112;50.986;4.354;2022-12-18T07:33:33;-5.90;99.90
25138;DHT22;13112;50.986;4.354;2022-12-18T07:36:00;-5.90;99.90
25138;DHT22;13112;50.986;4.354;2022-12-18T07:38:26;-5.90;99.90
25138;DHT22;13112;50.986;4.354;2022-12-18T07:40:52;-5.80;99.90
25138;DHT22;13112;50.986;4.354;2022-12-18T07:43:17;-5.70;99.90
25138;DHT22;13112;50.986;4.354;2022-12-18T07:45:43;-5.80;99.90
25138;DHT22;13112;50.986;4.354;2022-12-18T07:48:09;-5.90;99.90
25138;DHT22;13112;50.986;4.354;2022-12-18T07:50:35;-5.80;99.90
25138;DHT22;13112;50.986;4.354;2022-12-18T07:53:01;-5.50;99.90
25138;DHT22;13112;50.986;4.354;2022-12-18T07:55:31;-5.60;99.90
25138;DHT22;13112;50.986;4.354;2022-12-18T07:57:57;-5.60;99.90
25138;DHT22;13112;50.986;4.354;2022-12-18T08:00:22;-5.20;99.90
25138;DHT22;13112;50.986;4.354;2022-12-18T08:02:48;-5.40;99.90
25138;DHT22;13112;50.986;4.354;2022-12-18T08:05:14;-5.40;99.90
25138;DHT22;13112;50.986;4.354;2022-12-18T08:07:40;-5.40;99.90
25138;DHT22;13112;50.986;4.354;2022-12-18T08:10:06;-5.20;99.90
25138;DHT22;13112;50.986;4.354;2022-12-18T08:12:32;-5.20;99.90
25138;DHT22;13112;50.986;4.354;2022-12-18T08:14:58;-5.20;99.90
25138;DHT22;13112;50.986;4.354;2022-12-18T08:17:23;-5.50;99.90
25138;DHT22;13112;50.986;4.354;2022-12-18T08:19:49;-5.50;99.90
25138;DHT22;13112;50.986;4.354;2022-12-18T08:22:15;-5.70;99.90
25138;DHT22;13112;50.986;4.354;2022-12-18T08:24:40;-5.60;99.90
25138;DHT22;13112;50.986;4.354;2022-12-18T08:27:06;-5.70;99.90
25138;DHT22;13112;50.986;4.354;2022-12-18T08:29:31;-5.60;99.90
25138;DHT22;13112;50.986;4.354;2022-12-18T08:31:57;-5.50;99.90
25138;DHT22;13112;50.986;4.354;2022-12-18T08:34:23;-5.40;99.90
25138;DHT22;13112;50.986;4.354;2022-12-18T08:36:49;-5.30;99.90
25138;DHT22;13112;50.986;4.354;2022-12-18T08:39:14;-5.10;99.90
25138;DHT22;13112;50.986;4.354;2022-12-18T08:41:40;-4.90;99.90
25138;DHT22;13112;50.986;4.354;2022-12-18T08:44:07;-4.60;99.90
25138;DHT22;13112;50.986;4.354;2022-12-18T08:46:52;-4.50;99.90
25138;DHT22;13112;50.986;4.354;2022-12-18T08:49:23;-4.50;99.90
25138;DHT22;13112;50.986;4.354;2022-12-18T08:51:54;-4.30;99.90
25138;DHT22;13112;50.986;4.354;2022-12-18T08:54:20;-4.20;99.90
25138;DHT22;13112;50.986;4.354;2022-12-18T08:56:46;-4.20;99.90
25138;DHT22;13112;50.986;4.354;2022-12-18T08:59:11;-4.20;99.90
25138;DHT22;13112;50.986;4.354;2022-12-18T09:01:37;-3.90;99.90
25138;DHT22;13112;50.986;4.354;2022-12-18T09:04:03;-3.50;99.90
25138;DHT22;13112;50.986;4.354;2022-12-18T09:06:29;-3.20;99.90
25138;DHT22;13112;50.986;4.354;2022-12-18T09:08:57;-3.00;99.90
25138;DHT22;13112;50.986;4.354;2022-12-18T09:11:26;-2.80;99.90
25138;DHT22;13112;50.986;4.354;2022-12-18T09:13:53;-3.00;99.90
25138;DHT22;13112;50.986;4.354;2022-12-18T09:16:20;-3.00;99.90
25138;DHT22;13112;50.986;4.354;2022-12-18T09:18:46;-3.00;99.90
25138;DHT22;13112;50.986;4.354;2022-12-18T09:21:17;-2.80;99.90
25138;DHT22;13112;50.986;4.354;2022-12-18T09:23:48;-2.60;99.90
25138;DHT22;13112;50.986;4.354;2022-12-18T09:26:14;-2.50;99.90
25138;DHT22;13112;50.986;4.354;2022-12-18T09:28:39;-2.90;99.90
25138;DHT22;13112;50.986;4.354;2022-12-18T09:31:07;-3.00;99.90
25138;DHT22;13112;50.986;4.354;2022-12-18T09:33:35;-3.00;99.90
25138;DHT22;13112;50.986;4.354;2022-12-18T09:36:03;-3.00;99.90
25138;DHT22;13112;50.986;4.354;2022-12-18T09:38:29;-3.10;99.90
25138;DHT22;13112;50.986;4.354;2022-12-18T09:40:59;-2.90;99.90
25138;DHT22;13112;50.986;4.354;2022-12-18T09:43:41;-2.60;99.90
25138;DHT22;13112;50.986;4.354;2022-12-18T09:46:11;-2.50;99.90
25138;DHT22;13112;50.986;4.354;2022-12-18T09:48:44;-2.30;99.90
25138;DHT22;13112;50.986;4.354;2022-12-18T09:51:39;-2.60;99.90
25138;DHT22;13112;50.986;4.354;2022-12-18T09:54:23;-2.80;99.90
25138;DHT22;13112;50.986;4.354;2022-12-18T09:56:50;-2.70;99.90
25138;DHT22;13112;50.986;4.354;2022-12-18T09:59:26;-2.50;99.90
25138;DHT22;13112;50.986;4.354;2022-12-18T10:01:53;-2.50;99.90
25138;DHT22;13112;50.986;4.354;2022-12-18T10:04:19;-2.40;99.90
25138;DHT22;13112;50.986;4.354;2022-12-18T10:07:03;-2.20;99.90
25138;DHT22;13112;50.986;4.354;2022-12-18T10:09:37;-2.50;99.90
25138;DHT22;13112;50.986;4.354;2022-12-18T10:19:56;-2.50;99.90
25138;DHT22;13112;50.986;4.354;2022-12-18T10:28:21;-2.50;99.90
25138;DHT22;13112;50.986;4.354;2022-12-18T10:30:47;-2.40;99.90
25138;DHT22;13112;50.986;4.354;2022-12-18T10:33:19;-2.30;99.90
25138;DHT22;13112;50.986;4.354;2022-12-18T10:35:48;-2.40;99.90
25138;DHT22;13112;50.986;4.354;2022-12-18T10:38:30;-2.40;99.90
25138;DHT22;13112;50.986;4.354;2022-12-18T10:41:02;-2.50;99.90
25138;DHT22;13112;50.986;4.354;2022-12-18T10:46:12;-2.40;99.90
25138;DHT22;13112;50.986;4.354;2022-12-18T10:48:52;-2.40;99.90
25138;DHT22;13112;50.986;4.354;2022-12-18T10:51:30;-2.40;99.90
25138;DHT22;13112;50.986;4.354;2022-12-18T10:54:21;-2.40;99.90
25138;DHT22;13112;50.986;4.354;2022-12-18T10:56:47;-2.10;99.90
25138;DHT22;13112;50.986;4.354;2022-12-18T10:59:15;-2.10;99.90
25138;DHT22;13112;50.986;4.354;2022-12-18T11:01:55;-1.80;99.90
25138;DHT22;13112;50.986;4.354;2022-12-18T11:04:28;-1.70;99.90
25138;DHT22;13112;50.986;4.354;2022-12-18T11:07:08;-1.60;99.90
25138;DHT22;13112;50.986;4.354;2022-12-18T11:09:38;-1.50;99.90
25138;DHT22;13112;50.986;4.354;2022-12-18T11:17:35;-1.10;99.90
25138;DHT22;13112;50.986;4.354;2022-12-18T11:20:17;-1.10;99.90
25138;DHT22;13112;50.986;4.354;2022-12-18T11:22:58;-1.10;99.90
25138;DHT22;13112;50.986;4.354;2022-12-18T11:25:24;-1.10;99.90
25138;DHT22;13112;50.986;4.354;2022-12-18T11:27:56;-1.20;99.90
25138;DHT22;13112;50.986;4.354;2022-12-18T11:33:05;-1.30;99.90
25138;DHT22;13112;50.986;4.354;2022-12-18T11:35:48;-1.20;99.90
25138;DHT22;13112;50.986;4.354;2022-12-18T11:38:25;-0.90;99.90
25138;DHT22;13112;50.986;4.354;2022-12-18T11:44:12;-0.40;99.90
25138;DHT22;13112;50.986;4.354;2022-12-18T11:46:48;-0.30;99.90
25138;DHT22;13112;50.986;4.354;2022-12-18T11:49:26;-0.10;99.90
25138;DHT22;13112;50.986;4.354;2022-12-18T11:52:00;0.10;99.90
25138;DHT22;13112;50.986;4.354;2022-12-18T11:54:27;0.20;99.90
25138;DHT22;13112;50.986;4.354;2022-12-18T11:57:09;0.20;99.90
25138;DHT22;13112;50.986;4.354;2022-12-18T12:02:36;0.60;99.90
25138;DHT22;13112;50.986;4.354;2022-12-18T12:08:07;0.90;99.90
25138;DHT22;13112;50.986;4.354;2022-12-18T12:16:41;1.20;99.90
25138;DHT22;13112;50.986;4.354;2022-12-18T12:21:36;1.20;99.90
25138;DHT22;13112;50.986;4.354;2022-12-18T12:40:23;2.30;99.90
25138;DHT22;13112;50.986;4.354;2022-12-18T12:42:54;2.40;99.90
25138;DHT22;13112;50.986;4.354;2022-12-18T12:46:05;2.50;99.90
25138;DHT22;13112;50.986;4.354;2022-12-18T12:51:17;2.40;99.90
25138;DHT22;13112;50.986;4.354;2022-12-18T12:53:44;2.20;99.90
25138;DHT22;13112;50.986;4.354;2022-12-18T12:56:13;2.00;99.90
25138;DHT22;13112;50.986;4.354;2022-12-18T12:59:04;1.60;99.90
25138;DHT22;13112;50.986;4.354;2022-12-18T13:01:58;1.70;99.90
25138;DHT22;13112;50.986;4.354;2022-12-18T13:04:44;1.90;99.90
25138;DHT22;13112;50.986;4.354;2022-12-18T13:07:26;2.10;99.90
25138;DHT22;13112;50.986;4.354;2022-12-18T13:15:47;2.40;99.90
25138;DHT22;13112;50.986;4.354;2022-12-18T13:18:20;2.50;99.90
25138;DHT22;13112;50.986;4.354;2022-12-18T13:21:23;2.50;99.90
25138;DHT22;13112;50.986;4.354;2022-12-18T13:23:50;2.30;99.90
25138;DHT22;13112;50.986;4.354;2022-12-18T13:31:14;2.10;99.90
25138;DHT22;13112;50.986;4.354;2022-12-18T13:33:44;2.00;99.90
25138;DHT22;13112;50.986;4.354;2022-12-18T13:36:25;1.90;99.90
25138;DHT22;13112;50.986;4.354;2022-12-18T13:41:45;2.00;99.90
25138;DHT22;13112;50.986;4.354;2022-12-18T13:44:24;2.20;99.90
25138;DHT22;13112;50.986;4.354;2022-12-18T13:46:51;2.30;99.90
25138;DHT22;13112;50.986;4.354;2022-12-18T13:51:46;2.30;99.90
25138;DHT22;13112;50.986;4.354;2022-12-18T13:56:49;2.50;99.90
25138;DHT22;13112;50.986;4.354;2022-12-18T14:01:53;1.50;99.90
25138;DHT22;13112;50.986;4.354;2022-12-18T14:04:23;1.10;99.90
25138;DHT22;13112;50.986;4.354;2022-12-18T14:06:52;0.80;99.90
25138;DHT22;13112;50.986;4.354;2022-12-18T14:09:24;0.80;99.90
25138;DHT22;13112;50.986;4.354;2022-12-18T14:11:51;0.80;99.90
25138;DHT22;13112;50.986;4.354;2022-12-18T14:14:18;0.80;99.90
25138;DHT22;13112;50.986;4.354;2022-12-18T14:16:46;0.80;99.90
25138;DHT22;13112;50.986;4.354;2022-12-18T14:19:15;0.80;99.90
25138;DHT22;13112;50.986;4.354;2022-12-18T14:21:47;0.80;99.90
25138;DHT22;13112;50.986;4.354;2022-12-18T14:24:21;0.80;99.90
25138;DHT22;13112;50.986;4.354;2022-12-18T14:26:49;0.70;99.90
25138;DHT22;13112;50.986;4.354;2022-12-18T14:32:13;0.70;99.90
25138;DHT22;13112;50.986;4.354;2022-12-18T14:34:43;0.70;99.90
25138;DHT22;13112;50.986;4.354;2022-12-18T14:37:14;0.70;99.90
25138;DHT22;13112;50.986;4.354;2022-12-18T14:39:40;0.60;99.90
25138;DHT22;13112;50.986;4.354;2022-12-18T14:42:05;0.60;99.90
25138;DHT22;13112;50.986;4.354;2022-12-18T14:44:34;0.70;99.90
25138;DHT22;13112;50.986;4.354;2022-12-18T14:47:00;0.60;99.90
25138;DHT22;13112;50.986;4.354;2022-12-18T14:49:33;0.50;99.90
25138;DHT22;13112;50.986;4.354;2022-12-18T14:52:00;0.60;99.90
25138;DHT22;13112;50.986;4.354;2022-12-18T14:54:28;0.60;99.90
25138;DHT22;13112;50.986;4.354;2022-12-18T14:57:03;0.60;99.90
25138;DHT22;13112;50.986;4.354;2022-12-18T14:59:31;0.70;99.90
25138;DHT22;13112;50.986;4.354;2022-12-18T15:02:25;0.60;99.90
25138;DHT22;13112;50.986;4.354;2022-12-18T15:05:18;0.60;99.90
25138;DHT22;13112;50.986;4.354;2022-12-18T15:07:49;0.70;99.90
25138;DHT22;13112;50.986;4.354;2022-12-18T15:13:07;0.70;99.90
25138;DHT22;13112;50.986;4.354;2022-12-18T15:18:00;0.80;99.90
25138;DHT22;13112;50.986;4.354;2022-12-18T15:20:26;0.90;99.90
25138;DHT22;13112;50.986;4.354;2022-12-18T15:22:51;0.90;99.90
25138;DHT22;13112;50.986;4.354;2022-12-18T15:25:34;0.90;99.90
25138;DHT22;13112;50.986;4.354;2022-12-18T15:28:02;0.80;99.90
25138;DHT22;13112;50.986;4.354;2022-12-18T15:30:28;0.90;99.90
25138;DHT22;13112;50.986;4.354;2022-12-18T15:36:11;1.20;99.90
25138;DHT22;13112;50.986;4.354;2022-12-18T15:38:37;1.20;99.90
25138;DHT22;13112;50.986;4.354;2022-12-18T15:41:11;1.30;99.90
25138;DHT22;13112;50.986;4.354;2022-12-18T15:43:38;1.30;99.90
25138;DHT22;13112;50.986;4.354;2022-12-18T15:46:09;1.30;99.90
25138;DHT22;13112;50.986;4.354;2022-12-18T15:48:40;1.30;99.90
25138;DHT22;13112;50.986;4.354;2022-12-18T15:51:13;1.30;99.90
25138;DHT22;13112;50.986;4.354;2022-12-18T15:53:40;1.30;99.90
25138;DHT22;13112;50.986;4.354;2022-12-18T15:56:10;1.20;99.90
25138;DHT22;13112;50.986;4.354;2022-12-18T15:58:54;1.20;99.90
25138;DHT22;13112;50.986;4.354;2022-12-18T16:01:22;1.00;99.90
25138;DHT22;13112;50.986;4.354;2022-12-18T16:03:48;1.10;99.90
25138;DHT22;13112;50.986;4.354;2022-12-18T16:06:14;1.20;99.90
25138;DHT22;13112;50.986;4.354;2022-12-18T16:08:40;1.30;99.90
25138;DHT22;13112;50.986;4.354;2022-12-18T16:11:42;1.30;99.90
25138;DHT22;13112;50.986;4.354;2022-12-18T16:14:20;1.40;99.90
25138;DHT22;13112;50.986;4.354;2022-12-18T16:16:48;1.40;99.90
25138;DHT22;13112;50.986;4.354;2022-12-18T16:19:14;1.40;99.90
25138;DHT22;13112;50.986;4.354;2022-12-18T16:21:40;1.40;99.90
25138;DHT22;13112;50.986;4.354;2022-12-18T16:24:16;1.40;99.90
25138;DHT22;13112;50.986;4.354;2022-12-18T16:26:43;1.50;99.90
25138;DHT22;13112;50.986;4.354;2022-12-18T16:29:09;1.40;99.90
25138;DHT22;13112;50.986;4.354;2022-12-18T16:31:35;1.40;99.90
25138;DHT22;13112;50.986;4.354;2022-12-18T16:34:21;1.40;99.90
25138;DHT22;13112;50.986;4.354;2022-12-18T16:36:50;1.30;99.90
25138;DHT22;13112;50.986;4.354;2022-12-18T16:39:17;1.20;99.90
25138;DHT22;13112;50.986;4.354;2022-12-18T16:41:43;1.10;99.90
25138;DHT22;13112;50.986;4.354;2022-12-18T16:44:09;1.20;99.90
25138;DHT22;13112;50.986;4.354;2022-12-18T16:46:35;1.10;99.90
25138;DHT22;13112;50.986;4.354;2022-12-18T16:49:01;1.10;99.90
25138;DHT22;13112;50.986;4.354;2022-12-18T16:51:27;1.10;99.90
25138;DHT22;13112;50.986;4.354;2022-12-18T16:53:54;1.10;99.90
25138;DHT22;13112;50.986;4.354;2022-12-18T16:56:22;1.10;99.90
25138;DHT22;13112;50.986;4.354;2022-12-18T16:58:56;1.10;99.90
25138;DHT22;13112;50.986;4.354;2022-12-18T17:01:22;1.10;99.90
25138;DHT22;13112;50.986;4.354;2022-12-18T17:03:56;1.10;99.90
25138;DHT22;13112;50.986;4.354;2022-12-18T17:06:23;1.10;99.90
25138;DHT22;13112;50.986;4.354;2022-12-18T17:08:57;1.10;99.90
25138;DHT22;13112;50.986;4.354;2022-12-18T17:11:24;1.20;99.90
25138;DHT22;13112;50.986;4.354;2022-12-18T17:13:50;1.20;99.90
25138;DHT22;13112;50.986;4.354;2022-12-18T17:16:16;1.30;99.90
25138;DHT22;13112;50.986;4.354;2022-12-18T17:18:42;1.30;99.90
25138;DHT22;13112;50.986;4.354;2022-12-18T17:21:09;1.30;99.90
25138;DHT22;13112;50.986;4.354;2022-12-18T17:23:36;1.30;99.90
25138;DHT22;13112;50.986;4.354;2022-12-18T17:26:02;1.30;99.90
25138;DHT22;13112;50.986;4.354;2022-12-18T17:28:29;1.30;99.90
25138;DHT22;13112;50.986;4.354;2022-12-18T17:30:56;1.30;99.90
25138;DHT22;13112;50.986;4.354;2022-12-18T17:33:22;1.30;99.90
25138;DHT22;13112;50.986;4.354;2022-12-18T17:35:48;1.30;99.90
25138;DHT22;13112;50.986;4.354;2022-12-18T17:38:14;1.30;99.90
25138;DHT22;13112;50.986;4.354;2022-12-18T17:40:40;1.30;99.90
25138;DHT22;13112;50.986;4.354;2022-12-18T17:43:07;1.30;99.90
25138;DHT22;13112;50.986;4.354;2022-12-18T17:45:39;1.20;99.90
25138;DHT22;13112;50.986;4.354;2022-12-18T17:48:07;1.40;99.90
25138;DHT22;13112;50.986;4.354;2022-12-18T17:50:34;1.30;99.90